sensor_id;sensor_type;location;lat;lon;timestamp;pressure;altitude;pressure_sealevel;temperature;humidity
10604;BME280;5349;41.554;23.274;2023-01-31T00:00:52;99132.78;;;3.17;100.00
10604;BME280;5349;41.554;23.274;2023-01-31T00:03:21;99123.34;;;3.15;100.00
10604;BME280;5349;41.554;23.274;2023-01-31T00:05:47;99124.88;;;3.17;100.00
10604;BME280;5349;41.554;23.274;2023-01-31T00:08:14;99141.66;;;3.16;100.00
10604;BME280;5349;41.554;23.274;2023-01-31T00:10:41;99137.81;;;3.11;100.00
10604;BME280;5349;41.554;23.274;2023-01-31T00:13:08;99136.34;;;3.08;100.00
10604;BME280;5349;41.554;23.274;2023-01-31T00:15:35;99131.53;;;3.04;100.00
10604;BME280;5349;41.554;23.274;2023-01-31T00:18:01;99125.38;;;2.95;100.00
10604;BME280;5349;41.554;23.274;2023-01-31T00:20:29;99137.53;;;2.88;100.00
10604;BME280;5349;41.554;23.274;2023-01-31T00:22:57;99130.09;;;2.84;100.00
10604;BME280;5349;41.554;23.274;2023-01-31T00:25:24;99125.66;;;2.84;100.00
10604;BME280;5349;41.554;23.274;2023-01-31T00:27:51;99124.53;;;2.87;100.00
10604;BME280;5349;41.554;23.274;2023-01-31T00:30:17;99130.41;;;2.81;100.00
10604;BME280;5349;41.554;23.274;2023-01-31T00:32:46;99117.53;;;2.78;100.00
10604;BME280;5349;41.554;23.274;2023-01-31T00:35:13;99120.00;;;2.79;100.00
10604;BME280;5349;41.554;23.274;2023-01-31T00:37:42;99111.59;;;2.76;100.00
10604;BME280;5349;41.554;23.274;2023-01-31T00:40:10;99108.81;;;2.77;100.00
10604;BME280;5349;41.554;23.274;2023-01-31T00:42:37;99113.25;;;2.51;100.00
10604;BME280;5349;41.554;23.274;2023-01-31T00:45:04;99114.16;;;2.42;100.00
10604;BME280;5349;41.554;23.274;2023-01-31T00:47:31;99121.66;;;2.38;100.00
10604;BME280;5349;41.554;23.274;2023-01-31T00:49:58;99123.31;;;2.38;100.00
10604;BME280;5349;41.554;23.274;2023-01-31T00:52:25;99128.88;;;2.36;100.00
10604;BME280;5349;41.554;23.274;2023-01-31T00:54:53;99113.00;;;2.45;100.00
10604;BME280;5349;41.554;23.274;2023-01-31T00:57:20;99116.56;;;2.53;100.00
10604;BME280;5349;41.554;23.274;2023-01-31T00:59:47;99117.25;;;2.63;100.00
10604;BME280;5349;41.554;23.274;2023-01-31T01:02:14;99122.44;;;2.73;100.00
10604;BME280;5349;41.554;23.274;2023-01-31T01:04:40;99124.28;;;2.80;100.00
10604;BME280;5349;41.554;23.274;2023-01-31T01:07:07;99116.63;;;2.87;100.00
10604;BME280;5349;41.554;23.274;2023-01-31T01:09:34;99125.34;;;2.87;100.00
10604;BME280;5349;41.554;23.274;2023-01-31T01:12:03;99141.69;;;2.91;100.00
10604;BME280;5349;41.554;23.274;2023-01-31T01:14:29;99130.00;;;2.93;100.00
10604;BME280;5349;41.554;23.274;2023-01-31T01:16:56;99122.13;;;3.01;100.00
10604;BME280;5349;41.554;23.274;2023-01-31T01:19:23;99125.13;;;3.06;100.00
10604;BME280;5349;41.554;23.274;2023-01-31T01:21:53;99124.81;;;3.09;100.00
10604;BME280;5349;41.554;23.274;2023-01-31T01:24:20;99123.78;;;3.02;100.00
10604;BME280;5349;41.554;23.274;2023-01-31T01:26:47;99126.78;;;3.07;100.00
10604;BME280;5349;41.554;23.274;2023-01-31T01:29:15;99115.94;;;3.10;100.00
10604;BME280;5349;41.554;23.274;2023-01-31T01:31:42;99120.91;;;3.13;100.00
10604;BME280;5349;41.554;23.274;2023-01-31T01:34:12;99116.44;;;3.14;100.00
10604;BME280;5349;41.554;23.274;2023-01-31T01:36:39;99117.59;;;3.11;100.00
10604;BME280;5349;41.554;23.274;2023-01-31T01:39:08;99107.19;;;3.10;100.00
10604;BME280;5349;41.554;23.274;2023-01-31T01:41:36;99078.09;;;2.86;100.00
10604;BME280;5349;41.554;23.274;2023-01-31T01:44:45;99094.28;;;2.91;100.00
10604;BME280;5349;41.554;23.274;2023-01-31T01:47:33;99081.00;;;2.75;100.00
10604;BME280;5349;41.554;23.274;2023-01-31T01:50:05;99087.06;;;2.75;100.00
10604;BME280;5349;41.554;23.274;2023-01-31T01:52:36;99094.59;;;2.70;100.00
10604;BME280;5349;41.554;23.274;2023-01-31T01:55:12;99090.44;;;2.60;100.00
10604;BME280;5349;41.554;23.274;2023-01-31T01:57:43;99086.81;;;2.61;100.00
10604;BME280;5349;41.554;23.274;2023-01-31T02:00:18;99096.72;;;2.67;100.00
10604;BME280;5349;41.554;23.274;2023-01-31T02:02:46;99091.66;;;2.73;100.00
10604;BME280;5349;41.554;23.274;2023-01-31T02:05:16;99087.75;;;2.77;100.00
10604;BME280;5349;41.554;23.274;2023-01-31T02:07:45;99088.41;;;2.79;100.00
10604;BME280;5349;41.554;23.274;2023-01-31T02:10:16;99086.44;;;2.81;100.00
10604;BME280;5349;41.554;23.274;2023-01-31T02:12:46;99091.03;;;2.79;100.00
10604;BME280;5349;41.554;23.274;2023-01-31T02:15:15;99087.13;;;2.83;100.00
10604;BME280;5349;41.554;23.274;2023-01-31T02:17:41;99089.13;;;2.89;100.00
10604;BME280;5349;41.554;23.274;2023-01-31T02:20:23;99101.38;;;2.98;100.00
10604;BME280;5349;41.554;23.274;2023-01-31T02:23:12;99095.31;;;3.06;100.00
10604;BME280;5349;41.554;23.274;2023-01-31T02:26:19;99100.28;;;3.09;100.00
10604;BME280;5349;41.554;23.274;2023-01-31T02:29:32;99091.88;;;3.05;100.00
10604;BME280;5349;41.554;23.274;2023-01-31T02:32:41;99105.72;;;3.07;100.00
10604;BME280;5349;41.554;23.274;2023-01-31T02:35:20;99104.69;;;3.00;100.00
10604;BME280;5349;41.554;23.274;2023-01-31T02:37:56;99109.72;;;2.94;100.00
10604;BME280;5349;41.554;23.274;2023-01-31T02:40:30;99116.75;;;2.85;100.00
10604;BME280;5349;41.554;23.274;2023-01-31T02:43:07;99116.09;;;2.83;100.00
10604;BME280;5349;41.554;23.274;2023-01-31T02:45:41;99098.38;;;2.68;100.00
10604;BME280;5349;41.554;23.274;2023-01-31T02:48:16;99122.34;;;2.82;100.00
10604;BME280;5349;41.554;23.274;2023-01-31T02:50:52;99110.47;;;2.78;100.00
10604;BME280;5349;41.554;23.274;2023-01-31T02:53:22;99123.63;;;2.78;100.00
10604;BME280;5349;41.554;23.274;2023-01-31T02:55:54;99117.19;;;2.73;100.00
10604;BME280;5349;41.554;23.274;2023-01-31T02:58:39;99132.06;;;2.64;100.00
10604;BME280;5349;41.554;23.274;2023-01-31T03:01:12;99128.63;;;2.64;100.00
10604;BME280;5349;41.554;23.274;2023-01-31T03:03:43;99139.16;;;2.64;100.00
10604;BME280;5349;41.554;23.274;2023-01-31T03:09:31;99127.03;;;2.71;100.00
10604;BME280;5349;41.554;23.274;2023-01-31T03:12:08;99132.50;;;2.77;100.00
10604;BME280;5349;41.554;23.274;2023-01-31T03:14:45;99133.19;;;2.79;100.00
10604;BME280;5349;41.554;23.274;2023-01-31T03:17:20;99140.09;;;2.80;100.00
10604;BME280;5349;41.554;23.274;2023-01-31T03:20:05;99144.50;;;2.72;100.00
10604;BME280;5349;41.554;23.274;2023-01-31T03:22:36;99141.69;;;2.73;100.00
10604;BME280;5349;41.554;23.274;2023-01-31T03:25:06;99148.09;;;2.71;100.00
10604;BME280;5349;41.554;23.274;2023-01-31T03:27:37;99142.41;;;2.58;100.00
10604;BME280;5349;41.554;23.274;2023-01-31T03:30:08;99158.19;;;2.58;100.00
10604;BME280;5349;41.554;23.274;2023-01-31T03:32:42;99145.84;;;2.58;100.00
10604;BME280;5349;41.554;23.274;2023-01-31T03:35:12;99145.09;;;2.66;100.00
10604;BME280;5349;41.554;23.274;2023-01-31T03:37:43;99148.34;;;2.60;100.00
10604;BME280;5349;41.554;23.274;2023-01-31T03:40:16;99156.59;;;2.65;100.00
10604;BME280;5349;41.554;23.274;2023-01-31T03:42:50;99154.41;;;2.60;100.00
10604;BME280;5349;41.554;23.274;2023-01-31T03:45:24;99171.25;;;2.67;100.00
10604;BME280;5349;41.554;23.274;2023-01-31T03:47:54;99175.94;;;2.56;100.00
10604;BME280;5349;41.554;23.274;2023-01-31T03:50:27;99161.63;;;2.58;100.00
10604;BME280;5349;41.554;23.274;2023-01-31T03:52:58;99149.91;;;2.53;100.00
10604;BME280;5349;41.554;23.274;2023-01-31T03:55:30;99141.06;;;2.54;100.00
10604;BME280;5349;41.554;23.274;2023-01-31T03:57:58;99144.19;;;2.57;100.00
10604;BME280;5349;41.554;23.274;2023-01-31T04:00:26;99143.50;;;2.55;100.00
10604;BME280;5349;41.554;23.274;2023-01-31T04:02:57;99136.75;;;2.53;100.00
10604;BME280;5349;41.554;23.274;2023-01-31T04:05:28;99135.63;;;2.55;100.00
10604;BME280;5349;41.554;23.274;2023-01-31T04:07:57;99143.06;;;2.60;100.00
10604;BME280;5349;41.554;23.274;2023-01-31T04:10:24;99150.19;;;2.67;100.00
10604;BME280;5349;41.554;23.274;2023-01-31T04:12:51;99149.28;;;2.76;100.00
10604;BME280;5349;41.554;23.274;2023-01-31T04:15:18;99145.06;;;2.83;100.00
10604;BME280;5349;41.554;23.274;2023-01-31T04:17:46;99149.41;;;2.92;100.00
10604;BME280;5349;41.554;23.274;2023-01-31T04:20:13;99154.66;;;2.92;100.00
10604;BME280;5349;41.554;23.274;2023-01-31T04:22:41;99158.19;;;3.01;100.00
10604;BME280;5349;41.554;23.274;2023-01-31T04:25:08;99157.47;;;2.91;100.00
10604;BME280;5349;41.554;23.274;2023-01-31T04:27:35;99150.94;;;2.77;100.00
10604;BME280;5349;41.554;23.274;2023-01-31T04:30:04;99148.44;;;2.50;100.00
10604;BME280;5349;41.554;23.274;2023-01-31T04:32:31;99140.31;;;2.44;100.00
10604;BME280;5349;41.554;23.274;2023-01-31T04:34:58;99145.97;;;2.32;100.00
10604;BME280;5349;41.554;23.274;2023-01-31T04:37:24;99140.44;;;2.25;100.00
10604;BME280;5349;41.554;23.274;2023-01-31T04:39:53;99160.69;;;2.25;100.00
10604;BME280;5349;41.554;23.274;2023-01-31T04:42:19;99172.28;;;2.32;100.00
10604;BME280;5349;41.554;23.274;2023-01-31T04:44:46;99168.34;;;2.36;100.00
10604;BME280;5349;41.554;23.274;2023-01-31T04:47:13;99172.56;;;2.46;100.00
10604;BME280;5349;41.554;23.274;2023-01-31T04:49:40;99180.03;;;2.50;100.00
10604;BME280;5349;41.554;23.274;2023-01-31T04:52:08;99192.13;;;2.61;95.08
10604;BME280;5349;41.554;23.274;2023-01-31T04:54:36;99208.50;;;2.72;91.22
10604;BME280;5349;41.554;23.274;2023-01-31T04:57:04;99211.88;;;2.82;91.11
10604;BME280;5349;41.554;23.274;2023-01-31T04:59:31;99216.53;;;2.88;87.33
10604;BME280;5349;41.554;23.274;2023-01-31T05:01:58;99215.09;;;2.94;87.63
10604;BME280;5349;41.554;23.274;2023-01-31T05:04:24;99226.00;;;2.99;86.20
10604;BME280;5349;41.554;23.274;2023-01-31T05:06:51;99221.47;;;3.09;87.10
10604;BME280;5349;41.554;23.274;2023-01-31T05:09:18;99218.06;;;3.16;83.79
10604;BME280;5349;41.554;23.274;2023-01-31T05:11:47;99213.97;;;3.22;86.20
10604;BME280;5349;41.554;23.274;2023-01-31T05:14:15;99219.25;;;3.22;83.65
10604;BME280;5349;41.554;23.274;2023-01-31T05:16:42;99217.28;;;3.24;83.09
10604;BME280;5349;41.554;23.274;2023-01-31T05:19:11;99213.53;;;3.26;84.83
10604;BME280;5349;41.554;23.274;2023-01-31T05:21:38;99213.97;;;3.22;84.11
10604;BME280;5349;41.554;23.274;2023-01-31T05:24:19;99212.31;;;3.21;82.72
10604;BME280;5349;41.554;23.274;2023-01-31T05:26:46;99210.38;;;3.23;82.45
10604;BME280;5349;41.554;23.274;2023-01-31T05:29:16;99219.13;;;3.23;81.50
10604;BME280;5349;41.554;23.274;2023-01-31T05:31:43;99211.53;;;3.28;80.34
10604;BME280;5349;41.554;23.274;2023-01-31T05:34:10;99210.72;;;3.28;79.50
10604;BME280;5349;41.554;23.274;2023-01-31T05:36:40;99225.94;;;3.34;78.70
10604;BME280;5349;41.554;23.274;2023-01-31T05:39:07;99215.53;;;3.58;100.00
10604;BME280;5349;41.554;23.274;2023-01-31T05:41:34;99232.53;;;3.63;79.26
10604;BME280;5349;41.554;23.274;2023-01-31T05:44:01;99237.53;;;3.74;82.67
10604;BME280;5349;41.554;23.274;2023-01-31T05:46:29;99235.44;;;3.85;82.67
10604;BME280;5349;41.554;23.274;2023-01-31T05:48:56;99231.16;;;3.84;79.83
10604;BME280;5349;41.554;23.274;2023-01-31T05:51:22;99244.25;;;3.68;77.50
10604;BME280;5349;41.554;23.274;2023-01-31T05:53:49;99238.25;;;3.84;81.10
10604;BME280;5349;41.554;23.274;2023-01-31T05:56:16;99239.28;;;3.91;79.43
10604;BME280;5349;41.554;23.274;2023-01-31T05:58:43;99240.47;;;4.04;78.21
10604;BME280;5349;41.554;23.274;2023-01-31T06:01:15;99236.66;;;3.99;76.04
10604;BME280;5349;41.554;23.274;2023-01-31T06:03:43;99241.78;;;4.00;74.87
10604;BME280;5349;41.554;23.274;2023-01-31T06:06:10;99241.75;;;3.92;74.61
10604;BME280;5349;41.554;23.274;2023-01-31T06:08:36;99241.66;;;3.76;74.15
10604;BME280;5349;41.554;23.274;2023-01-31T06:11:04;99239.22;;;3.83;76.29
10604;BME280;5349;41.554;23.274;2023-01-31T06:13:31;99237.25;;;3.85;73.01
10604;BME280;5349;41.554;23.274;2023-01-31T06:15:58;99262.03;;;3.92;71.81
10604;BME280;5349;41.554;23.274;2023-01-31T06:18:25;99249.88;;;3.99;71.21
10604;BME280;5349;41.554;23.274;2023-01-31T06:20:53;99261.59;;;4.04;71.48
10604;BME280;5349;41.554;23.274;2023-01-31T06:23:20;99229.41;;;4.01;70.83
10604;BME280;5349;41.554;23.274;2023-01-31T06:25:48;99258.16;;;4.20;70.04
10604;BME280;5349;41.554;23.274;2023-01-31T06:28:14;99256.22;;;4.30;70.13
10604;BME280;5349;41.554;23.274;2023-01-31T06:30:42;99257.72;;;4.40;69.57
10604;BME280;5349;41.554;23.274;2023-01-31T06:33:09;99254.31;;;4.48;68.69
10604;BME280;5349;41.554;23.274;2023-01-31T06:35:37;99260.44;;;4.56;67.83
10604;BME280;5349;41.554;23.274;2023-01-31T06:38:06;99268.53;;;4.63;68.55
10604;BME280;5349;41.554;23.274;2023-01-31T06:40:33;99260.13;;;4.67;68.01
10604;BME280;5349;41.554;23.274;2023-01-31T06:43:01;99258.81;;;4.71;68.19
10604;BME280;5349;41.554;23.274;2023-01-31T06:45:28;99264.25;;;4.77;67.80
10604;BME280;5349;41.554;23.274;2023-01-31T06:47:54;99253.53;;;4.79;67.74
10604;BME280;5349;41.554;23.274;2023-01-31T06:50:21;99260.97;;;4.91;67.75
10604;BME280;5349;41.554;23.274;2023-01-31T06:52:48;99268.91;;;4.99;67.83
10604;BME280;5349;41.554;23.274;2023-01-31T06:55:16;99266.47;;;5.06;67.50
10604;BME280;5349;41.554;23.274;2023-01-31T06:57:46;99262.31;;;5.03;66.07
10604;BME280;5349;41.554;23.274;2023-01-31T07:00:15;99271.91;;;5.12;66.32
10604;BME280;5349;41.554;23.274;2023-01-31T07:02:43;99268.41;;;5.20;66.63
10604;BME280;5349;41.554;23.274;2023-01-31T07:05:09;99259.69;;;5.27;66.44
10604;BME280;5349;41.554;23.274;2023-01-31T07:07:36;99271.72;;;5.22;65.37
10604;BME280;5349;41.554;23.274;2023-01-31T07:10:04;99262.97;;;5.29;65.97
10604;BME280;5349;41.554;23.274;2023-01-31T07:12:32;99269.75;;;5.24;65.40
10604;BME280;5349;41.554;23.274;2023-01-31T07:14:59;99271.91;;;5.20;66.40
10604;BME280;5349;41.554;23.274;2023-01-31T07:17:26;99260.16;;;5.31;65.86
10604;BME280;5349;41.554;23.274;2023-01-31T07:19:53;99256.53;;;5.32;65.73
10604;BME280;5349;41.554;23.274;2023-01-31T07:22:20;99262.00;;;5.38;65.62
10604;BME280;5349;41.554;23.274;2023-01-31T07:24:47;99252.41;;;5.37;65.42
10604;BME280;5349;41.554;23.274;2023-01-31T07:27:15;99244.28;;;5.23;65.98
10604;BME280;5349;41.554;23.274;2023-01-31T07:29:43;99249.44;;;5.24;65.75
10604;BME280;5349;41.554;23.274;2023-01-31T07:32:10;99248.78;;;5.22;65.71
10604;BME280;5349;41.554;23.274;2023-01-31T07:34:37;99250.91;;;5.27;66.50
10604;BME280;5349;41.554;23.274;2023-01-31T07:37:04;99236.53;;;5.29;66.86
10604;BME280;5349;41.554;23.274;2023-01-31T07:39:31;99247.78;;;5.39;66.58
10604;BME280;5349;41.554;23.274;2023-01-31T07:41:58;99245.78;;;5.41;66.29
10604;BME280;5349;41.554;23.274;2023-01-31T07:44:25;99253.06;;;5.39;65.98
10604;BME280;5349;41.554;23.274;2023-01-31T07:46:53;99260.00;;;5.40;66.66
10604;BME280;5349;41.554;23.274;2023-01-31T07:49:20;99248.09;;;5.36;66.15
10604;BME280;5349;41.554;23.274;2023-01-31T07:51:48;99254.88;;;5.39;66.33
10604;BME280;5349;41.554;23.274;2023-01-31T07:54:14;99248.56;;;5.48;66.51
10604;BME280;5349;41.554;23.274;2023-01-31T07:56:41;99257.97;;;5.58;65.70
10604;BME280;5349;41.554;23.274;2023-01-31T07:59:08;99261.59;;;5.57;64.99
10604;BME280;5349;41.554;23.274;2023-01-31T08:01:35;99262.94;;;5.61;64.79
10604;BME280;5349;41.554;23.274;2023-01-31T08:04:20;99261.94;;;5.54;65.36
10604;BME280;5349;41.554;23.274;2023-01-31T08:06:48;99263.44;;;5.65;63.93
10604;BME280;5349;41.554;23.274;2023-01-31T08:09:16;99274.00;;;5.73;63.93
10604;BME280;5349;41.554;23.274;2023-01-31T08:11:43;99258.81;;;5.67;63.21
10604;BME280;5349;41.554;23.274;2023-01-31T08:14:10;99251.66;;;5.83;64.14
10604;BME280;5349;41.554;23.274;2023-01-31T08:16:36;99262.59;;;5.80;64.08
10604;BME280;5349;41.554;23.274;2023-01-31T08:19:04;99255.44;;;5.89;63.92
10604;BME280;5349;41.554;23.274;2023-01-31T08:21:32;99257.25;;;5.96;62.86
10604;BME280;5349;41.554;23.274;2023-01-31T08:23:59;99262.25;;;5.83;62.89
10604;BME280;5349;41.554;23.274;2023-01-31T08:26:26;99256.28;;;5.89;63.82
10604;BME280;5349;41.554;23.274;2023-01-31T08:28:53;99253.13;;;5.94;62.71
10604;BME280;5349;41.554;23.274;2023-01-31T08:31:21;99261.56;;;5.89;63.08
10604;BME280;5349;41.554;23.274;2023-01-31T08:33:48;99264.22;;;5.89;63.32
10604;BME280;5349;41.554;23.274;2023-01-31T08:36:17;99241.78;;;5.53;62.91
10604;BME280;5349;41.554;23.274;2023-01-31T08:38:46;99273.63;;;5.92;63.35
10604;BME280;5349;41.554;23.274;2023-01-31T08:41:13;99274.13;;;5.95;62.27
10604;BME280;5349;41.554;23.274;2023-01-31T08:43:41;99277.59;;;5.96;61.96
10604;BME280;5349;41.554;23.274;2023-01-31T08:46:08;99277.75;;;6.02;61.70
10604;BME280;5349;41.554;23.274;2023-01-31T08:48:35;99282.22;;;6.01;62.35
10604;BME280;5349;41.554;23.274;2023-01-31T08:51:05;99248.50;;;5.88;62.42
10604;BME280;5349;41.554;23.274;2023-01-31T08:53:32;99280.25;;;5.96;62.17
10604;BME280;5349;41.554;23.274;2023-01-31T08:56:02;99263.38;;;5.89;61.97
10604;BME280;5349;41.554;23.274;2023-01-31T08:58:30;99269.16;;;6.00;62.54
10604;BME280;5349;41.554;23.274;2023-01-31T09:01:00;99232.13;;;5.92;61.75
10604;BME280;5349;41.554;23.274;2023-01-31T09:03:27;99276.28;;;6.38;61.29
10604;BME280;5349;41.554;23.274;2023-01-31T09:05:57;99257.84;;;6.52;60.61
10604;BME280;5349;41.554;23.274;2023-01-31T09:08:24;99267.31;;;6.69;59.71
10604;BME280;5349;41.554;23.274;2023-01-31T09:10:52;99257.28;;;6.87;58.58
10604;BME280;5349;41.554;23.274;2023-01-31T09:13:20;99256.41;;;7.17;58.02
10604;BME280;5349;41.554;23.274;2023-01-31T09:15:56;99260.72;;;7.32;54.83
10604;BME280;5349;41.554;23.274;2023-01-31T09:18:23;99278.75;;;7.37;54.32
10604;BME280;5349;41.554;23.274;2023-01-31T09:20:50;99278.88;;;7.43;53.84
10604;BME280;5349;41.554;23.274;2023-01-31T09:23:17;99271.38;;;7.47;53.22
10604;BME280;5349;41.554;23.274;2023-01-31T09:25:51;99270.31;;;7.56;53.48
10604;BME280;5349;41.554;23.274;2023-01-31T09:28:19;99270.22;;;7.64;52.93
10604;BME280;5349;41.554;23.274;2023-01-31T09:30:46;99256.97;;;7.78;53.03
10604;BME280;5349;41.554;23.274;2023-01-31T09:33:13;99285.44;;;7.84;52.10
10604;BME280;5349;41.554;23.274;2023-01-31T09:35:40;99262.91;;;7.80;52.91
10604;BME280;5349;41.554;23.274;2023-01-31T09:38:07;99252.41;;;8.01;51.51
10604;BME280;5349;41.554;23.274;2023-01-31T09:40:37;99270.44;;;8.06;51.14
10604;BME280;5349;41.554;23.274;2023-01-31T09:43:05;99267.78;;;8.06;51.76
10604;BME280;5349;41.554;23.274;2023-01-31T09:45:39;99258.84;;;8.21;50.96
10604;BME280;5349;41.554;23.274;2023-01-31T09:48:14;99259.91;;;8.12;50.68
10604;BME280;5349;41.554;23.274;2023-01-31T09:50:45;99211.56;;;8.02;51.70
10604;BME280;5349;41.554;23.274;2023-01-31T09:53:16;99266.31;;;8.03;51.39
10604;BME280;5349;41.554;23.274;2023-01-31T09:55:54;99251.22;;;7.89;51.31
10604;BME280;5349;41.554;23.274;2023-01-31T09:58:29;99239.13;;;8.01;51.79
10604;BME280;5349;41.554;23.274;2023-01-31T10:01:08;99242.97;;;7.99;51.44
10604;BME280;5349;41.554;23.274;2023-01-31T10:03:45;99219.97;;;7.91;52.35
10604;BME280;5349;41.554;23.274;2023-01-31T10:06:18;99212.56;;;8.01;51.94
10604;BME280;5349;41.554;23.274;2023-01-31T10:08:51;99213.66;;;8.07;51.94
10604;BME280;5349;41.554;23.274;2023-01-31T10:11:27;99217.03;;;8.15;51.75
10604;BME280;5349;41.554;23.274;2023-01-31T10:13:57;99213.28;;;8.10;51.61
10604;BME280;5349;41.554;23.274;2023-01-31T10:16:31;99222.03;;;8.18;51.89
10604;BME280;5349;41.554;23.274;2023-01-31T10:19:02;99207.91;;;8.18;52.38
10604;BME280;5349;41.554;23.274;2023-01-31T10:21:34;99198.00;;;8.26;51.44
10604;BME280;5349;41.554;23.274;2023-01-31T10:24:11;99205.72;;;8.21;51.71
10604;BME280;5349;41.554;23.274;2023-01-31T10:26:41;99192.97;;;8.31;51.79
10604;BME280;5349;41.554;23.274;2023-01-31T10:29:14;99216.63;;;8.47;51.12
10604;BME280;5349;41.554;23.274;2023-01-31T10:31:50;99179.50;;;8.18;51.17
10604;BME280;5349;41.554;23.274;2023-01-31T10:34:23;99187.91;;;8.36;50.79
10604;BME280;5349;41.554;23.274;2023-01-31T10:36:55;99188.72;;;8.08;50.72
10604;BME280;5349;41.554;23.274;2023-01-31T10:39:26;99184.63;;;8.05;52.27
10604;BME280;5349;41.554;23.274;2023-01-31T10:42:14;99178.41;;;8.27;51.61
10604;BME280;5349;41.554;23.274;2023-01-31T10:44:49;99175.75;;;8.27;50.63
10604;BME280;5349;41.554;23.274;2023-01-31T10:47:21;99157.91;;;8.21;50.67
10604;BME280;5349;41.554;23.274;2023-01-31T10:49:50;99154.94;;;8.16;50.74
10604;BME280;5349;41.554;23.274;2023-01-31T10:52:43;99140.94;;;8.22;50.05
10604;BME280;5349;41.554;23.274;2023-01-31T10:55:25;99144.56;;;8.36;50.01
10604;BME280;5349;41.554;23.274;2023-01-31T10:57:56;99134.06;;;8.48;49.60
10604;BME280;5349;41.554;23.274;2023-01-31T11:00:27;99141.03;;;8.49;49.50
10604;BME280;5349;41.554;23.274;2023-01-31T11:02:57;99154.13;;;8.51;49.02
10604;BME280;5349;41.554;23.274;2023-01-31T11:05:27;99138.25;;;8.57;49.31
10604;BME280;5349;41.554;23.274;2023-01-31T11:07:55;99140.59;;;8.67;48.61
10604;BME280;5349;41.554;23.274;2023-01-31T11:10:24;99153.81;;;8.60;48.64
10604;BME280;5349;41.554;23.274;2023-01-31T11:12:53;99135.53;;;8.72;49.21
10604;BME280;5349;41.554;23.274;2023-01-31T11:15:23;99152.38;;;8.79;48.64
10604;BME280;5349;41.554;23.274;2023-01-31T11:17:51;99147.03;;;8.79;47.11
10604;BME280;5349;41.554;23.274;2023-01-31T11:20:27;99148.94;;;8.64;47.28
10604;BME280;5349;41.554;23.274;2023-01-31T11:22:56;99151.34;;;8.59;46.51
10604;BME280;5349;41.554;23.274;2023-01-31T11:25:25;99165.38;;;8.53;47.04
10604;BME280;5349;41.554;23.274;2023-01-31T11:27:55;99156.53;;;8.67;47.72
10604;BME280;5349;41.554;23.274;2023-01-31T11:30:26;99136.28;;;8.66;47.85
10604;BME280;5349;41.554;23.274;2023-01-31T11:32:53;99171.47;;;8.68;47.67
10604;BME280;5349;41.554;23.274;2023-01-31T11:35:25;99154.19;;;8.78;47.97
10604;BME280;5349;41.554;23.274;2023-01-31T11:37:53;99171.03;;;8.85;47.10
10604;BME280;5349;41.554;23.274;2023-01-31T11:40:25;99154.00;;;8.80;47.32
10604;BME280;5349;41.554;23.274;2023-01-31T11:42:55;99160.72;;;8.76;46.46
10604;BME280;5349;41.554;23.274;2023-01-31T11:45:24;99154.25;;;8.85;47.04
10604;BME280;5349;41.554;23.274;2023-01-31T11:47:54;99164.00;;;8.99;46.72
10604;BME280;5349;41.554;23.274;2023-01-31T11:50:25;99156.31;;;9.10;47.13
10604;BME280;5349;41.554;23.274;2023-01-31T11:52:57;99171.22;;;9.05;46.19
10604;BME280;5349;41.554;23.274;2023-01-31T11:55:26;99157.16;;;8.90;47.04
10604;BME280;5349;41.554;23.274;2023-01-31T11:57:55;99153.16;;;9.00;47.00
10604;BME280;5349;41.554;23.274;2023-01-31T12:00:25;99140.44;;;8.96;46.75
10604;BME280;5349;41.554;23.274;2023-01-31T12:02:58;99151.34;;;9.01;47.20
10604;BME280;5349;41.554;23.274;2023-01-31T12:05:34;99168.41;;;9.13;47.35
10604;BME280;5349;41.554;23.274;2023-01-31T12:08:03;99153.16;;;9.00;47.72
10604;BME280;5349;41.554;23.274;2023-01-31T12:10:33;99156.28;;;9.04;49.00
10604;BME280;5349;41.554;23.274;2023-01-31T12:13:10;99143.28;;;8.94;48.89
10604;BME280;5349;41.554;23.274;2023-01-31T12:15:44;99171.72;;;8.94;48.22
10604;BME280;5349;41.554;23.274;2023-01-31T12:18:12;99152.38;;;8.79;48.50
10604;BME280;5349;41.554;23.274;2023-01-31T12:20:45;99156.28;;;9.04;48.96
10604;BME280;5349;41.554;23.274;2023-01-31T12:23:27;99142.81;;;9.12;49.84
10604;BME280;5349;41.554;23.274;2023-01-31T12:26:04;99142.19;;;9.37;49.11
10604;BME280;5349;41.554;23.274;2023-01-31T12:28:49;99164.50;;;9.09;48.81
10604;BME280;5349;41.554;23.274;2023-01-31T12:31:35;99151.09;;;8.96;49.47
10604;BME280;5349;41.554;23.274;2023-01-31T12:37:04;99150.50;;;9.00;47.63
10604;BME280;5349;41.554;23.274;2023-01-31T12:39:47;99143.78;;;8.83;47.83
10604;BME280;5349;41.554;23.274;2023-01-31T12:42:31;99132.28;;;8.76;49.03
10604;BME280;5349;41.554;23.274;2023-01-31T12:45:15;99131.09;;;8.79;50.43
10604;BME280;5349;41.554;23.274;2023-01-31T12:47:56;99156.19;;;8.97;49.86
10604;BME280;5349;41.554;23.274;2023-01-31T12:50:29;99125.78;;;8.79;49.42
10604;BME280;5349;41.554;23.274;2023-01-31T12:53:22;99130.31;;;8.85;50.14
10604;BME280;5349;41.554;23.274;2023-01-31T12:56:03;99139.75;;;8.87;48.80
10604;BME280;5349;41.554;23.274;2023-01-31T12:58:48;99134.31;;;8.53;49.95
10604;BME280;5349;41.554;23.274;2023-01-31T13:01:20;99136.75;;;8.69;50.56
10604;BME280;5349;41.554;23.274;2023-01-31T13:03:58;99116.00;;;8.44;52.11
10604;BME280;5349;41.554;23.274;2023-01-31T13:06:33;99141.72;;;8.37;54.46
10604;BME280;5349;41.554;23.274;2023-01-31T13:09:09;99140.00;;;8.15;54.30
10604;BME280;5349;41.554;23.274;2023-01-31T13:11:40;99150.22;;;7.97;55.32
10604;BME280;5349;41.554;23.274;2023-01-31T13:14:13;99125.41;;;7.90;56.31
10604;BME280;5349;41.554;23.274;2023-01-31T13:16:46;99165.03;;;8.06;55.34
10604;BME280;5349;41.554;23.274;2023-01-31T13:19:18;99149.47;;;8.03;58.19
10604;BME280;5349;41.554;23.274;2023-01-31T13:21:50;99140.50;;;8.04;60.71
10604;BME280;5349;41.554;23.274;2023-01-31T13:24:25;99127.59;;;8.01;61.14
10604;BME280;5349;41.554;23.274;2023-01-31T13:26:57;99144.31;;;8.16;61.92
10604;BME280;5349;41.554;23.274;2023-01-31T13:29:29;99146.91;;;7.95;62.68
10604;BME280;5349;41.554;23.274;2023-01-31T13:32:00;99148.13;;;7.78;64.31